SVVA/VLN METAR and TAF weather

Enter ICAO airport designator
Station Type Date Time Source
SVVA METAR 2018/12/03 21:00 UTC NOAA

SVVA 032100Z /////KT 9999 SCT016 27/20 Q1013


Station Type Date Time Source
SVVA Decoded METAR 2018/12/03 21:00 UTC NOAA

Valencia, Venezuela (SVVA) 10-10N 067-56W 431M
Dec 03, 2018 - 04:00 PM EST / 2018.12.03 2100 UTC
Visibility: greater than 7 mile(s):0
Sky conditions: partly cloudy
Temperature: 80 F (27 C)
Dew Point: 68 F (20 C)
Relative Humidity: 65%
Pressure (altimeter): 29.91 in. Hg (1013 hPa)
ob: SVVA 032100Z /////KT 9999 SCT016 27/20 Q1013
cycle: 21

Station Type Date Time Source
SVVA TAF 2018/12/06 18:17 UTC NOAA

TAF SVVA 061600Z 0618/0718 14005KT 9999 FEW016 SCT070 TX34/0619Z TN24/0709Z
BECMG 0618/0621 VRB04KT 9999 SCT016


Example: see airport list